Time;durP1;ratioP1;P1;durP2;ratioP2;P2;SDS_P1;SDS_P2;PMS_P1;PMS_P2;Temp;Humidity;BMP_temperature;BMP_pressure;BME280_temperature;BME280_humidity;BME280_pressure;Samples;Min_cycle;Max_cycle;Signal;HPM_P1;HPM_P2
2022/05/28 00:01:02;;;;;;;6.43;1.45;;;11.20;99.90;;;;;;5045286;28;20041;-66
2022/05/28 00:03:29;;;;;;;5.53;1.10;;;11.20;99.90;;;;;;5048134;28;20041;-66
2022/05/28 00:05:55;;;;;;;6.95;1.10;;;11.30;99.90;;;;;;5046607;28;20047;-67
2022/05/28 00:08:21;;;;;;;6.65;1.45;;;11.30;99.90;;;;;;5048416;28;20036;-66
2022/05/28 00:10:47;;;;;;;4.75;1.00;;;11.30;99.90;;;;;;5049659;28;20041;-66
2022/05/28 00:13:13;;;;;;;8.48;1.25;;;11.40;99.90;;;;;;5046540;28;20037;-66
2022/05/28 00:15:41;;;;;;;11.45;1.65;;;11.40;99.90;;;;;;5044864;28;20041;-66
2022/05/28 00:18:08;;;;;;;9.85;1.55;;;11.50;99.90;;;;;;5045984;28;20063;-66
2022/05/28 00:20:34;;;;;;;7.18;1.10;;;11.50;99.90;;;;;;5042567;28;20056;-66
2022/05/28 00:23:00;;;;;;;7.88;1.38;;;11.50;99.90;;;;;;5047534;28;20041;-66
2022/05/28 00:25:26;;;;;;;12.70;1.60;;;11.50;99.90;;;;;;5049787;28;20033;-67
2022/05/28 00:27:53;;;;;;;9.50;1.92;;;11.50;99.90;;;;;;5046352;28;20044;-67
2022/05/28 00:30:19;;;;;;;9.57;1.35;;;11.40;99.90;;;;;;5048575;28;20045;-66
2022/05/28 00:32:45;;;;;;;8.80;1.60;;;11.20;99.90;;;;;;5048465;28;20044;-66
2022/05/28 00:35:13;;;;;;;8.23;1.50;;;11.10;99.90;;;;;;5046025;28;20044;-66
2022/05/28 00:37:39;;;;;;;7.72;1.55;;;10.90;99.90;;;;;;5047811;28;20040;-66
2022/05/28 00:40:09;;;;;;;3.22;0.75;;;10.80;99.90;;;;;;5047704;28;20396;-66
2022/05/28 00:42:34;;;;;;;4.20;0.82;;;10.60;99.90;;;;;;5042048;28;20080;-66
2022/05/28 00:45:00;;;;;;;3.90;0.70;;;10.50;99.90;;;;;;5045743;28;20076;-66
2022/05/28 00:47:26;;;;;;;2.35;0.80;;;10.40;99.90;;;;;;5044434;28;20056;-66
2022/05/28 00:49:52;;;;;;;3.20;0.60;;;10.20;99.90;;;;;;5047440;28;20118;-66
2022/05/28 00:52:22;;;;;;;4.10;0.68;;;10.10;99.90;;;;;;5047171;28;20053;-66
2022/05/28 00:54:48;;;;;;;3.88;0.95;;;10.00;99.90;;;;;;5048142;28;20045;-66
2022/05/28 00:57:16;;;;;;;4.18;0.95;;;9.90;99.90;;;;;;5048538;28;20419;-66
2022/05/28 00:59:42;;;;;;;4.78;0.77;;;9.80;99.90;;;;;;5047632;28;20037;-66
2022/05/28 01:02:24;;;;;;;5.30;0.73;;;9.80;99.90;;;;;;5050099;28;20108;-66
2022/05/28 01:05:02;;;;;;;5.38;1.00;;;9.70;99.90;;;;;;5048167;28;20047;-66
2022/05/28 01:07:46;;;;;;;4.28;1.17;;;9.70;99.90;;;;;;5048690;28;20121;-66
2022/05/28 01:10:45;;;;;;;3.35;0.90;;;9.70;99.90;;;;;;5045719;28;20175;-66
2022/05/28 01:13:22;;;;;;;5.40;1.08;;;9.70;99.90;;;;;;5058465;28;20060;-66
2022/05/28 01:16:09;;;;;;;5.35;0.80;;;9.70;99.90;;;;;;5049162;28;20183;-65
2022/05/28 01:18:50;;;;;;;6.40;1.13;;;9.70;99.90;;;;;;5046689;28;20097;-66
2022/05/28 01:21:28;;;;;;;6.90;0.90;;;9.70;99.90;;;;;;5044964;28;20048;-66
2022/05/28 01:24:09;;;;;;;9.13;1.25;;;9.70;99.90;;;;;;5050837;28;20095;-65
2022/05/28 01:26:52;;;;;;;6.05;0.90;;;9.70;99.90;;;;;;5051794;28;20495;-66
2022/05/28 01:29:21;;;;;;;6.78;1.00;;;9.70;99.90;;;;;;5054000;28;20041;-66
2022/05/28 01:31:48;;;;;;;7.03;1.25;;;9.70;99.90;;;;;;5051266;28;20041;-66
2022/05/28 01:34:16;;;;;;;9.23;1.40;;;9.70;99.90;;;;;;5051993;28;20442;-66
2022/05/28 01:36:44;;;;;;;8.40;1.08;;;9.70;99.90;;;;;;5052697;28;20040;-66
2022/05/28 01:39:12;;;;;;;9.65;1.73;;;9.70;99.90;;;;;;5053903;28;20476;-66
2022/05/28 01:41:39;;;;;;;4.05;0.80;;;9.70;99.90;;;;;;5051398;28;20045;-66
2022/05/28 01:44:09;;;;;;;6.03;1.60;;;9.70;99.90;;;;;;5049913;28;20111;-66
2022/05/28 01:46:36;;;;;;;8.70;1.30;;;9.70;99.90;;;;;;5052341;28;20037;-66
2022/05/28 01:49:03;;;;;;;6.80;1.92;;;9.70;99.90;;;;;;5050997;28;20737;-66
2022/05/28 01:51:33;;;;;;;6.07;1.17;;;9.60;99.90;;;;;;5048170;28;20052;-66
2022/05/28 01:54:08;;;;;;;9.77;1.27;;;9.60;99.90;;;;;;5050672;28;20045;-66
2022/05/28 01:56:47;;;;;;;9.82;1.20;;;9.60;99.90;;;;;;5050703;28;20048;-66
2022/05/28 01:59:15;;;;;;;6.47;1.17;;;9.60;99.90;;;;;;5051737;28;20044;-66
2022/05/28 02:01:42;;;;;;;7.05;1.10;;;9.50;99.90;;;;;;5049681;28;20128;-66
2022/05/28 02:04:08;;;;;;;6.82;0.90;;;9.60;99.90;;;;;;5047603;28;20037;-67
2022/05/28 02:06:36;;;;;;;6.50;1.20;;;9.50;99.90;;;;;;5050664;28;20395;-66
2022/05/28 02:09:06;;;;;;;8.93;1.23;;;9.60;99.90;;;;;;5048856;28;20511;-66
2022/05/28 02:12:04;;;;;;;7.95;1.17;;;9.50;99.90;;;;;;5049233;28;20055;-66
2022/05/28 02:14:54;;;;;;;7.13;1.13;;;9.50;99.90;;;;;;5027599;28;20064;-67
2022/05/28 02:17:26;;;;;;;8.65;1.20;;;9.50;99.90;;;;;;5027025;28;20065;-66
2022/05/28 02:20:15;;;;;;;6.90;1.15;;;9.40;99.90;;;;;;5026143;28;20124;-66
2022/05/28 02:22:43;;;;;;;7.03;1.23;;;9.40;99.90;;;;;;5023854;28;20080;-67
2022/05/28 02:25:15;;;;;;;5.13;1.05;;;9.30;99.90;;;;;;5027442;28;20076;-66
2022/05/28 02:27:42;;;;;;;7.93;1.27;;;9.40;99.90;;;;;;5013309;28;20072;-66
2022/05/28 02:30:10;;;;;;;4.85;1.20;;;9.30;99.90;;;;;;5029528;28;20041;-66
2022/05/28 02:32:35;;;;;;;9.35;1.70;;;9.30;99.90;;;;;;5022733;28;20058;-66
2022/05/28 02:35:01;;;;;;;6.38;1.08;;;9.30;99.90;;;;;;5012634;28;20045;-66
2022/05/28 02:37:28;;;;;;;7.63;1.00;;;9.30;99.90;;;;;;5026012;28;20120;-65
2022/05/28 02:39:54;;;;;;;7.43;1.25;;;9.30;99.90;;;;;;5030063;28;20054;-66
2022/05/28 02:42:20;;;;;;;9.82;1.33;;;9.30;99.90;;;;;;5025787;28;20120;-65
2022/05/28 02:44:46;;;;;;;9.10;1.80;;;9.30;99.90;;;;;;5008082;28;20053;-67
2022/05/28 02:47:11;;;;;;;10.77;1.25;;;9.30;99.90;;;;;;5008514;28;20045;-66
2022/05/28 02:49:37;;;;;;;7.18;1.10;;;9.20;99.90;;;;;;5027026;28;20065;-66
2022/05/28 02:52:05;;;;;;;6.63;1.05;;;9.20;99.90;;;;;;5058099;28;20514;-66
2022/05/28 02:54:31;;;;;;;6.20;1.13;;;9.10;99.90;;;;;;5046383;28;20037;-66
2022/05/28 02:56:57;;;;;;;9.68;1.30;;;9.10;99.90;;;;;;5050229;28;20450;-66
2022/05/28 02:59:23;;;;;;;7.40;1.08;;;9.10;99.90;;;;;;5051380;28;20082;-65
2022/05/28 03:01:50;;;;;;;9.98;1.85;;;9.00;99.90;;;;;;5048881;28;20052;-66
2022/05/28 03:04:16;;;;;;;5.85;1.38;;;9.00;99.90;;;;;;5045011;28;20055;-66
2022/05/28 03:06:42;;;;;;;8.05;1.33;;;9.00;99.90;;;;;;5051990;28;20041;-66
2022/05/28 03:09:09;;;;;;;8.18;1.30;;;9.00;99.90;;;;;;5049936;28;20029;-66
2022/05/28 03:11:36;;;;;;;7.63;1.20;;;8.90;99.90;;;;;;5044391;28;20045;-65
2022/05/28 03:14:02;;;;;;;7.05;1.02;;;8.90;99.90;;;;;;5047214;28;20427;-66
2022/05/28 03:16:28;;;;;;;4.85;1.20;;;8.90;99.90;;;;;;5050588;28;20037;-66
2022/05/28 03:18:53;;;;;;;5.30;1.60;;;8.90;99.90;;;;;;5045412;28;20091;-66
2022/05/28 03:21:20;;;;;;;9.95;1.88;;;8.90;99.90;;;;;;5049663;28;20060;-66
2022/05/28 03:23:47;;;;;;;9.00;1.33;;;8.90;99.90;;;;;;5050207;28;20186;-66
2022/05/28 03:26:25;;;;;;;10.10;1.33;;;8.90;99.90;;;;;;5048143;28;20147;-66
2022/05/28 03:28:51;;;;;;;9.55;1.50;;;8.90;99.90;;;;;;5045741;28;20041;-66
2022/05/28 03:31:18;;;;;;;8.70;1.13;;;8.90;99.90;;;;;;5049428;28;20095;-66
2022/05/28 03:33:44;;;;;;;6.10;0.95;;;8.90;99.90;;;;;;5048153;28;20064;-66
2022/05/28 03:36:10;;;;;;;8.07;2.47;;;8.80;99.90;;;;;;5045435;28;20124;-66
2022/05/28 03:38:36;;;;;;;6.45;1.20;;;8.90;99.90;;;;;;5049657;28;20047;-65
2022/05/28 03:41:03;;;;;;;7.10;1.30;;;8.80;99.90;;;;;;5048709;28;20048;-66
2022/05/28 03:43:29;;;;;;;8.30;1.20;;;8.80;99.90;;;;;;5031973;28;20049;-66
2022/05/28 03:45:55;;;;;;;7.47;1.27;;;8.90;99.90;;;;;;5047327;28;20037;-67
2022/05/28 03:48:21;;;;;;;12.60;1.80;;;8.90;99.90;;;;;;5049990;28;20044;-66
2022/05/28 03:50:46;;;;;;;11.07;1.40;;;8.90;99.90;;;;;;5046037;28;20072;-67
2022/05/28 03:53:12;;;;;;;7.28;1.10;;;8.90;99.90;;;;;;5050772;28;20099;-66
2022/05/28 03:55:39;;;;;;;9.65;1.33;;;8.90;99.90;;;;;;5047812;28;20047;-66
2022/05/28 03:58:06;;;;;;;8.95;1.70;;;8.90;99.90;;;;;;5049455;28;20033;-66
2022/05/28 04:00:32;;;;;;;6.85;1.35;;;8.90;99.90;;;;;;5044734;28;20102;-66
2022/05/28 04:02:59;;;;;;;9.00;1.23;;;9.00;99.90;;;;;;5050847;28;20469;-66
2022/05/28 04:05:25;;;;;;;10.88;1.27;;;9.00;99.90;;;;;;5047016;28;20041;-67
2022/05/28 04:07:50;;;;;;;8.77;1.33;;;9.00;99.90;;;;;;5048630;28;20426;-66
2022/05/28 04:10:17;;;;;;;14.32;1.25;;;9.00;99.90;;;;;;5048771;28;20037;-66
2022/05/28 04:12:43;;;;;;;7.85;2.55;;;9.00;99.90;;;;;;5046018;28;20044;-66
2022/05/28 04:15:10;;;;;;;8.18;1.45;;;9.10;99.90;;;;;;5057721;28;20040;-66
2022/05/28 04:17:36;;;;;;;7.95;1.42;;;9.10;99.90;;;;;;5044887;28;20043;-66
2022/05/28 04:20:04;;;;;;;11.68;1.35;;;9.20;99.90;;;;;;5062342;28;20468;-66
2022/05/28 04:22:29;;;;;;;7.20;1.13;;;9.20;99.90;;;;;;5049499;28;20072;-66
2022/05/28 04:24:55;;;;;;;10.25;1.67;;;9.20;99.90;;;;;;5047984;28;20080;-66
2022/05/28 04:27:21;;;;;;;9.52;1.58;;;9.30;99.90;;;;;;5048705;28;20115;-66
2022/05/28 04:29:46;;;;;;;12.48;1.88;;;9.30;99.90;;;;;;5048114;28;20095;-66
2022/05/28 04:32:12;;;;;;;9.75;1.30;;;9.30;99.90;;;;;;5044646;28;20041;-66
2022/05/28 04:34:38;;;;;;;9.13;1.85;;;9.30;99.90;;;;;;5065885;28;20153;-66
2022/05/28 04:37:04;;;;;;;5.88;1.30;;;9.40;99.90;;;;;;5046575;28;20033;-64
2022/05/28 04:39:29;;;;;;;11.10;1.60;;;9.50;99.90;;;;;;5037006;28;20045;-67
2022/05/28 04:41:55;;;;;;;9.63;1.50;;;9.60;99.90;;;;;;5044000;28;20043;-67
2022/05/28 04:44:21;;;;;;;9.50;1.50;;;9.60;99.90;;;;;;5047638;28;20041;-67
2022/05/28 04:46:46;;;;;;;11.70;1.90;;;9.70;99.90;;;;;;5046869;28;20094;-67
2022/05/28 04:49:12;;;;;;;18.55;2.22;;;9.80;99.90;;;;;;5044572;28;20037;-67
2022/05/28 04:51:38;;;;;;;10.00;1.80;;;9.90;99.90;;;;;;5047194;28;20120;-66
2022/05/28 04:54:03;;;;;;;8.30;1.50;;;10.00;99.90;;;;;;5049021;28;20051;-67
2022/05/28 04:56:29;;;;;;;11.68;1.75;;;10.10;99.90;;;;;;5046519;28;20036;-67
2022/05/28 04:58:55;;;;;;;10.93;1.75;;;10.20;99.90;;;;;;5051680;28;20047;-67
2022/05/28 05:01:22;;;;;;;11.48;2.22;;;10.20;99.90;;;;;;5050669;28;20190;-67
2022/05/28 05:03:48;;;;;;;11.95;1.92;;;10.30;99.90;;;;;;5052196;28;20495;-68
2022/05/28 05:06:13;;;;;;;14.00;1.90;;;10.40;99.90;;;;;;5052461;28;20033;-67
2022/05/28 05:08:39;;;;;;;11.07;1.80;;;10.50;99.90;;;;;;5052074;28;20072;-67
2022/05/28 05:11:05;;;;;;;12.38;1.92;;;10.50;99.90;;;;;;5051158;28;20099;-67
2022/05/28 05:13:31;;;;;;;7.45;1.55;;;10.60;99.90;;;;;;5053023;28;20033;-67
2022/05/28 05:15:56;;;;;;;11.57;1.67;;;10.70;99.90;;;;;;5050614;28;20163;-66
2022/05/28 05:18:22;;;;;;;11.77;1.60;;;10.80;99.90;;;;;;5048755;28;20068;-67
2022/05/28 05:20:48;;;;;;;12.30;2.28;;;10.80;99.90;;;;;;5052540;28;20126;-67
2022/05/28 05:23:14;;;;;;;8.50;1.52;;;11.00;99.90;;;;;;5048438;28;20037;-66
2022/05/28 05:25:39;;;;;;;12.75;1.92;;;11.00;99.90;;;;;;5049974;28;20506;-67
2022/05/28 05:28:06;;;;;;;11.00;1.60;;;11.10;99.90;;;;;;5051538;28;20045;-67
2022/05/28 05:30:32;;;;;;;11.43;1.52;;;11.10;99.90;;;;;;5048135;28;20044;-67
2022/05/28 05:32:57;;;;;;;9.82;1.67;;;11.20;99.90;;;;;;5050462;28;20099;-67
2022/05/28 05:35:23;;;;;;;8.70;2.15;;;11.30;99.90;;;;;;5053307;28;20037;-67
2022/05/28 05:37:49;;;;;;;13.05;1.85;;;11.30;99.90;;;;;;5065990;28;20395;-67
2022/05/28 05:40:15;;;;;;;11.10;1.73;;;11.40;99.90;;;;;;5052037;28;20037;-66
2022/05/28 05:42:41;;;;;;;11.07;2.22;;;11.50;99.90;;;;;;5051463;28;20446;-67
2022/05/28 05:45:08;;;;;;;8.88;1.98;;;11.60;99.90;;;;;;5049666;28;20041;-67
2022/05/28 05:47:34;;;;;;;9.40;2.40;;;11.60;99.90;;;;;;5044967;28;20041;-66
2022/05/28 05:50:00;;;;;;;10.27;1.70;;;11.80;99.90;;;;;;5051982;28;20064;-67
2022/05/28 05:52:29;;;;;;;12.30;1.90;;;11.80;99.90;;;;;;5044857;28;20049;-67
2022/05/28 05:54:54;;;;;;;11.73;2.83;;;11.80;99.90;;;;;;5049699;28;20051;-67
2022/05/28 05:57:20;;;;;;;11.75;2.63;;;11.80;99.90;;;;;;5049903;28;20767;-67
2022/05/28 05:59:46;;;;;;;11.82;2.15;;;11.80;99.90;;;;;;5053031;28;20036;-67
2022/05/28 06:02:12;;;;;;;10.63;1.65;;;11.80;99.90;;;;;;5050164;28;20044;-66
2022/05/28 06:04:37;;;;;;;10.10;1.90;;;11.70;99.90;;;;;;5051942;28;20080;-68
2022/05/28 06:07:05;;;;;;;11.52;1.90;;;11.60;99.90;;;;;;5050402;28;20545;-67
2022/05/28 06:09:31;;;;;;;9.93;1.70;;;11.50;99.90;;;;;;5049548;28;20059;-68
2022/05/28 06:11:56;;;;;;;11.27;1.88;;;11.40;99.90;;;;;;5048470;28;20041;-66
2022/05/28 06:14:22;;;;;;;11.13;2.20;;;11.30;99.90;;;;;;5051409;28;20036;-67
2022/05/28 06:16:48;;;;;;;10.57;2.10;;;11.30;99.90;;;;;;5049235;28;20033;-66
2022/05/28 06:19:14;;;;;;;13.75;2.13;;;11.30;99.90;;;;;;5050608;28;20073;-67
2022/05/28 06:21:39;;;;;;;10.23;2.17;;;11.20;99.90;;;;;;5048174;28;20057;-67
2022/05/28 06:24:05;;;;;;;11.05;1.90;;;11.20;99.90;;;;;;5046703;28;20052;-67
2022/05/28 06:26:31;;;;;;;10.00;2.22;;;11.20;99.90;;;;;;5051211;28;20487;-67
2022/05/28 06:28:57;;;;;;;8.65;2.15;;;11.10;99.90;;;;;;5033902;28;20124;-66
2022/05/28 06:31:22;;;;;;;14.20;2.47;;;11.10;99.90;;;;;;5051953;28;20120;-67
2022/05/28 06:33:48;;;;;;;10.45;2.00;;;11.10;99.90;;;;;;5050725;28;20061;-67
2022/05/28 06:36:14;;;;;;;10.25;2.05;;;11.10;99.90;;;;;;5046567;28;20045;-67
2022/05/28 06:38:41;;;;;;;11.60;1.83;;;11.20;99.90;;;;;;5044542;28;20446;-66
2022/05/28 06:41:07;;;;;;;13.63;2.28;;;11.20;99.90;;;;;;5047650;28;20052;-67
2022/05/28 06:43:33;;;;;;;13.98;1.88;;;11.30;99.90;;;;;;5046841;28;20060;-67
2022/05/28 06:46:04;;;;;;;13.63;2.10;;;11.30;99.90;;;;;;5049963;28;20074;-68
2022/05/28 06:48:30;;;;;;;8.13;1.90;;;11.30;99.90;;;;;;5046432;28;20123;-67
2022/05/28 06:51:01;;;;;;;7.43;2.45;;;11.40;99.90;;;;;;5050111;28;20119;-67
2022/05/28 06:53:33;;;;;;;7.28;1.77;;;11.60;99.90;;;;;;5051847;28;20037;-67
2022/05/28 06:55:59;;;;;;;10.52;2.33;;;12.00;99.90;;;;;;5048650;28;20123;-67
2022/05/28 06:58:24;;;;;;;8.35;2.03;;;12.30;99.90;;;;;;5051367;28;20557;-67
2022/05/28 07:00:50;;;;;;;9.93;1.77;;;12.60;99.90;;;;;;5048127;28;20037;-67
2022/05/28 07:03:20;;;;;;;16.48;2.25;;;12.90;99.90;;;;;;5049397;28;20039;-66
2022/05/28 07:05:45;;;;;;;13.43;1.80;;;13.00;99.90;;;;;;5058273;28;20056;-66
2022/05/28 07:08:11;;;;;;;13.82;2.17;;;12.90;99.90;;;;;;5050276;28;20480;-67
2022/05/28 07:10:43;;;;;;;10.82;2.03;;;12.90;99.90;;;;;;5047379;28;22585;-67
2022/05/28 07:13:10;;;;;;;13.10;1.90;;;12.90;99.90;;;;;;5049498;28;20029;-66
2022/05/28 07:15:35;;;;;;;14.00;2.75;;;12.80;99.90;;;;;;5048747;28;20041;-66
2022/05/28 07:18:01;;;;;;;8.88;1.73;;;12.60;99.90;;;;;;5048866;28;20052;-67
2022/05/28 07:20:27;;;;;;;11.60;2.20;;;12.70;99.90;;;;;;5047338;28;20045;-67
2022/05/28 07:22:52;;;;;;;15.15;2.00;;;12.60;99.90;;;;;;5048162;28;20044;-67
2022/05/28 07:25:18;;;;;;;10.30;1.98;;;12.50;99.90;;;;;;5050042;28;20063;-67
2022/05/28 07:27:44;;;;;;;7.10;1.60;;;12.40;99.90;;;;;;5043112;28;20044;-67
2022/05/28 07:30:10;;;;;;;22.75;2.67;;;12.40;99.90;;;;;;5048732;28;20056;-67
2022/05/28 07:32:36;;;;;;;16.73;2.13;;;12.60;99.90;;;;;;5042166;28;20042;-67
2022/05/28 07:35:02;;;;;;;8.63;1.90;;;12.80;99.90;;;;;;5048823;28;20049;-67
2022/05/28 07:37:29;;;;;;;7.13;1.63;;;13.10;99.90;;;;;;5045838;28;20415;-66
2022/05/28 07:39:56;;;;;;;12.27;1.75;;;13.00;99.90;;;;;;5046755;28;20467;-67
2022/05/28 07:42:21;;;;;;;9.20;1.67;;;12.90;99.90;;;;;;5048354;28;20045;-66
2022/05/28 07:44:47;;;;;;;9.90;1.60;;;12.80;99.90;;;;;;5047699;28;20043;-66
2022/05/28 07:47:13;;;;;;;13.20;2.03;;;12.80;99.90;;;;;;5046224;28;20442;-66
2022/05/28 07:49:39;;;;;;;9.10;1.85;;;12.70;99.90;;;;;;5048662;28;20048;-66
2022/05/28 07:52:06;;;;;;;13.52;2.50;;;12.70;99.90;;;;;;5047055;28;20072;-66
2022/05/28 07:54:32;;;;;;;12.68;1.90;;;12.70;99.90;;;;;;5048085;28;20047;-66
2022/05/28 07:56:58;;;;;;;11.40;2.13;;;12.70;99.90;;;;;;5049363;28;20483;-66
2022/05/28 07:59:24;;;;;;;12.52;1.92;;;12.80;99.90;;;;;;5050102;28;20036;-66
2022/05/28 08:01:50;;;;;;;10.85;1.90;;;13.00;99.90;;;;;;5062353;28;20040;-68
2022/05/28 08:04:15;;;;;;;10.80;1.73;;;13.20;99.90;;;;;;5049370;28;20072;-67
2022/05/28 08:06:42;;;;;;;13.80;2.40;;;13.30;99.90;;;;;;5048023;28;20049;-67
2022/05/28 08:09:09;;;;;;;13.80;2.50;;;13.50;99.90;;;;;;5047976;28;20488;-66
2022/05/28 08:11:35;;;;;;;15.32;2.38;;;13.60;99.90;;;;;;5048186;28;20112;-66
2022/05/28 08:14:01;;;;;;;9.82;2.17;;;13.80;99.90;;;;;;5046994;28;20052;-68
2022/05/28 08:16:27;;;;;;;14.13;2.10;;;14.00;99.90;;;;;;5046237;28;20476;-67
2022/05/28 08:18:52;;;;;;;9.20;1.88;;;14.00;99.90;;;;;;5048811;28;20029;-65
2022/05/28 08:24:03;;;;;;;7.50;1.42;;;14.40;99.90;;;;;;5049657;28;20040;-67
2022/05/28 08:26:29;;;;;;;11.35;2.53;;;14.70;99.90;;;;;;5046898;28;20615;-67
2022/05/28 08:28:55;;;;;;;6.78;1.70;;;14.60;99.90;;;;;;5048168;28;20116;-67
2022/05/28 08:31:22;;;;;;;9.43;1.67;;;14.90;99.90;;;;;;5044549;28;20044;-66
2022/05/28 08:33:48;;;;;;;8.68;1.95;;;14.90;99.90;;;;;;5045215;28;20499;-68
2022/05/28 08:36:15;;;;;;;8.52;2.00;;;14.60;99.90;;;;;;5041429;28;20514;-67
2022/05/28 08:38:41;;;;;;;10.32;1.73;;;14.30;99.90;;;;;;5038558;28;20483;-67
2022/05/28 08:41:14;;;;;;;13.80;2.08;;;14.20;99.90;;;;;;5046923;28;20090;-66
2022/05/28 08:44:02;;;;;;;7.00;1.60;;;14.00;99.90;;;;;;5049233;28;20099;-68
2022/05/28 08:46:33;;;;;;;10.88;2.08;;;13.80;99.90;;;;;;5026378;28;20534;-67
2022/05/28 08:49:00;;;;;;;10.93;2.03;;;13.70;99.90;;;;;;5047991;28;20083;-66
2022/05/28 08:51:48;;;;;;;12.55;2.60;;;13.70;99.90;;;;;;5047600;28;20631;-67
2022/05/28 08:54:56;;;;;;;13.10;2.10;;;14.10;99.90;;;;;;5047595;28;20495;-67
2022/05/28 08:57:45;;;;;;;12.77;2.60;;;14.20;99.90;;;;;;5043331;28;20401;-67
2022/05/28 09:00:13;;;;;;;9.50;2.20;;;14.10;99.90;;;;;;5041649;28;20116;-67
2022/05/28 09:02:49;;;;;;;14.10;2.53;;;14.10;99.90;;;;;;5046393;28;20083;-67
2022/05/28 09:05:25;;;;;;;13.45;2.47;;;14.00;99.90;;;;;;5041207;28;20084;-67
2022/05/28 09:07:54;;;;;;;9.07;2.25;;;13.90;99.90;;;;;;5047061;28;20099;-67
2022/05/28 09:10:20;;;;;;;16.25;1.77;;;13.90;99.90;;;;;;5046778;28;20037;-67
2022/05/28 09:12:58;;;;;;;9.35;1.95;;;14.10;99.90;;;;;;5048764;28;20392;-67
2022/05/28 09:15:24;;;;;;;8.15;1.90;;;14.60;99.90;;;;;;5045987;28;20040;-67
2022/05/28 09:17:56;;;;;;;11.02;2.38;;;14.90;99.90;;;;;;5047289;28;20617;-67
2022/05/28 09:20:31;;;;;;;9.50;1.77;;;14.90;99.90;;;;;;5044471;28;20044;-67
2022/05/28 09:22:57;;;;;;;9.50;2.30;;;14.90;99.90;;;;;;5046819;28;20045;-68
2022/05/28 09:25:26;;;;;;;10.00;2.10;;;15.10;99.90;;;;;;5046038;28;20083;-67
2022/05/28 09:28:21;;;;;;;8.65;1.73;;;15.00;99.90;;;;;;5046218;28;20041;-68
2022/05/28 09:31:11;;;;;;;11.55;2.03;;;14.80;99.90;;;;;;5044960;28;20084;-68
2022/05/28 09:34:09;;;;;;;10.00;2.22;;;14.50;99.90;;;;;;5048235;28;20480;-67
2022/05/28 09:36:51;;;;;;;13.45;2.28;;;14.20;99.90;;;;;;5009741;28;20060;-67
2022/05/28 09:39:23;;;;;;;;;;;14.20;99.90;;;;;;5011625;28;20041;-67
2022/05/28 09:42:25;;;;;;;12.93;2.00;;;14.30;99.90;;;;;;5010914;28;19917;-67
2022/05/28 09:45:09;;;;;;;11.10;1.77;;;14.70;99.90;;;;;;5013085;28;20091;-67
2022/05/28 09:47:47;;;;;;;11.40;1.85;;;14.90;99.90;;;;;;5014466;28;20156;-68
2022/05/28 09:50:27;;;;;;;14.38;1.85;;;14.80;99.90;;;;;;5030856;28;20037;-67
2022/05/28 09:56:02;;;;;;;8.73;2.00;;;14.40;99.90;;;;;;5027835;28;20052;-67
2022/05/28 09:58:35;;;;;;;13.30;2.13;;;14.20;99.90;;;;;;5013503;28;20051;-68
2022/05/28 10:01:21;;;;;;;12.07;2.20;;;14.10;99.90;;;;;;5030005;28;20053;-68
2022/05/28 10:06:34;;;;;;;12.95;2.25;;;14.40;99.90;;;;;;5030461;28;20069;-67
2022/05/28 10:09:14;;;;;;;8.57;1.98;;;14.80;99.90;;;;;;5014379;28;20459;-67
2022/05/28 10:11:49;;;;;;;8.82;1.92;;;14.90;99.90;;;;;;5014380;28;20049;-68
2022/05/28 10:14:16;;;;;;;12.45;2.20;;;14.80;99.90;;;;;;5051926;28;20036;-68
2022/05/28 10:16:46;;;;;;;10.50;1.85;;;14.60;99.90;;;;;;5051800;28;20041;-68
2022/05/28 10:19:25;;;;;;;13.15;1.88;;;14.30;99.90;;;;;;5051326;28;20111;-68
2022/05/28 10:21:53;;;;;;;7.78;1.50;;;14.20;99.90;;;;;;5051034;28;20041;-67
2022/05/28 10:24:20;;;;;;;10.02;1.92;;;14.10;99.90;;;;;;5053026;28;20487;-68
2022/05/28 10:26:57;;;;;;;14.15;1.80;;;14.10;99.90;;;;;;5051430;28;20166;-68
2022/05/28 10:29:38;;;;;;;9.50;1.85;;;14.30;99.90;;;;;;5051292;28;20438;-68
2022/05/28 10:32:26;;;;;;;7.60;1.77;;;14.50;99.90;;;;;;5052778;28;20491;-68
2022/05/28 10:35:29;;;;;;;7.85;1.40;;;14.50;99.90;;;;;;5051335;28;20156;-68
2022/05/28 10:38:20;;;;;;;10.13;1.67;;;14.40;99.90;;;;;;5051223;28;20418;-67
2022/05/28 10:40:53;;;;;;;7.65;1.42;;;14.30;99.90;;;;;;5052260;28;20123;-68
2022/05/28 10:43:39;;;;;;;11.55;1.77;;;14.20;99.90;;;;;;5051432;28;20123;-67
2022/05/28 10:46:08;;;;;;;15.88;2.00;;;14.30;99.90;;;;;;5050732;28;20052;-67
2022/05/28 10:48:52;;;;;;;12.15;2.47;;;14.40;99.90;;;;;;5050755;28;20071;-68
2022/05/28 10:51:40;;;;;;;10.55;2.03;;;14.50;99.90;;;;;;5051056;28;20099;-67
2022/05/28 10:54:31;;;;;;;8.80;1.58;;;14.60;99.90;;;;;;5050891;28;20423;-67
2022/05/28 10:57:38;;;;;;;11.38;2.00;;;15.00;99.90;;;;;;5050932;28;20064;-67
2022/05/28 11:00:12;;;;;;;13.38;2.40;;;15.70;99.90;;;;;;5030072;28;20462;-68
2022/05/28 11:03:15;;;;;;;14.77;2.25;;;15.80;99.90;;;;;;5013172;28;20045;-67
2022/05/28 11:06:03;;;;;;;11.70;1.70;;;15.90;99.90;;;;;;5029466;28;20774;-67
2022/05/28 11:08:31;;;;;;;8.05;1.77;;;15.60;99.90;;;;;;5029780;28;20052;-67
2022/05/28 11:11:15;;;;;;;13.30;2.10;;;15.40;99.90;;;;;;5013130;28;20115;-67
2022/05/28 11:13:52;;;;;;;6.05;1.75;;;15.10;99.90;;;;;;5013385;28;20049;-67
2022/05/28 11:16:18;;;;;;;9.57;1.85;;;14.90;99.90;;;;;;5013647;28;20389;-67
2022/05/28 11:19:02;;;;;;;11.35;1.98;;;14.70;99.90;;;;;;5013078;28;20057;-67
2022/05/28 11:21:51;;;;;;;8.90;1.90;;;14.50;99.90;;;;;;5029591;28;20464;-68
2022/05/28 11:24:35;;;;;;;9.95;2.10;;;14.30;99.90;;;;;;5029644;28;20049;-67
2022/05/28 11:27:03;;;;;;;11.52;1.80;;;14.20;99.90;;;;;;5012965;28;20037;-67
2022/05/28 11:29:49;;;;;;;9.20;1.77;;;14.20;99.90;;;;;;5012900;28;20047;-68
2022/05/28 11:32:23;;;;;;;7.97;1.55;;;14.60;99.90;;;;;;5051668;28;20107;-68
2022/05/28 11:34:55;;;;;;;8.80;1.80;;;15.00;99.90;;;;;;5051642;28;20037;-68
2022/05/28 11:37:37;;;;;;;8.30;1.48;;;15.20;99.90;;;;;;5052060;28;20029;-68
2022/05/28 11:40:21;;;;;;;10.53;1.90;;;15.20;99.90;;;;;;5050399;28;20045;-67
2022/05/28 11:43:11;;;;;;;7.53;2.03;;;15.10;99.90;;;;;;5051258;28;20086;-67
2022/05/28 11:46:06;;;;;;;8.45;1.65;;;15.10;99.90;;;;;;5049981;28;20403;-68
2022/05/28 11:51:39;;;;;;;12.50;2.50;;;15.30;99.90;;;;;;5049721;28;20155;-68
2022/05/28 11:54:18;;;;;;;13.88;2.15;;;15.30;99.90;;;;;;5050089;28;20068;-67
2022/05/28 11:56:48;;;;;;;10.00;1.50;;;15.10;99.90;;;;;;5049816;28;20128;-68
2022/05/28 11:59:19;;;;;;;10.77;1.90;;;14.90;99.90;;;;;;5049916;28;20033;-67
2022/05/28 12:01:52;;;;;;;11.32;1.67;;;14.60;99.90;;;;;;5051016;28;20044;-67
2022/05/28 12:04:19;;;;;;;8.15;1.55;;;14.50;99.90;;;;;;5051194;28;20033;-67
2022/05/28 12:06:58;;;;;;;9.10;1.80;;;14.50;99.90;;;;;;5032573;28;20048;-67
2022/05/28 12:09:28;;;;;;;7.32;1.77;;;14.80;99.90;;;;;;5049955;28;20040;-67
2022/05/28 12:12:13;;;;;;;7.85;1.80;;;15.10;99.90;;;;;;5049442;28;20041;-67
2022/05/28 12:14:41;;;;;;;6.35;1.45;;;15.40;99.90;;;;;;5049508;28;20049;-68
2022/05/28 12:17:19;;;;;;;10.55;1.65;;;15.30;99.90;;;;;;5049835;28;20502;-67
2022/05/28 12:20:06;;;;;;;7.55;1.50;;;15.40;99.90;;;;;;5049372;28;20091;-67
2022/05/28 12:22:53;;;;;;;7.07;1.60;;;15.30;99.90;;;;;;5049502;28;20045;-67
2022/05/28 12:25:38;;;;;;;10.13;2.17;;;15.10;99.90;;;;;;5049546;28;20138;-68
2022/05/28 12:28:22;;;;;;;10.05;2.17;;;14.90;99.90;;;;;;5050720;28;20399;-67
2022/05/28 12:30:51;;;;;;;10.35;1.80;;;14.60;99.90;;;;;;5050543;28;20044;-67
2022/05/28 12:34:07;;;;;;;10.02;2.33;;;14.40;99.90;;;;;;5049316;28;20041;-67
2022/05/28 12:36:40;;;;;;;12.15;2.22;;;14.30;99.90;;;;;;5031664;28;20059;-68
2022/05/28 12:39:27;;;;;;;7.78;1.70;;;14.20;99.90;;;;;;5048325;28;20203;-67
2022/05/28 12:41:58;;;;;;;10.25;1.90;;;14.40;99.90;;;;;;5031445;28;20049;-67
2022/05/28 12:44:25;;;;;;;8.40;2.10;;;14.50;99.90;;;;;;5031879;28;20044;-67
2022/05/28 12:46:56;;;;;;;15.13;1.63;;;14.50;99.90;;;;;;5031340;28;20065;-67
2022/05/28 12:49:26;;;;;;;13.98;2.20;;;14.50;99.90;;;;;;5031460;28;20056;-68
2022/05/28 12:51:58;;;;;;;8.43;1.80;;;14.30;99.90;;;;;;5030742;28;20057;-68
2022/05/28 12:54:35;;;;;;;9.77;2.10;;;14.30;99.90;;;;;;5031608;28;20086;-67
2022/05/28 12:57:26;;;;;;;9.05;1.70;;;14.40;99.90;;;;;;5031687;28;20033;-67
2022/05/28 13:00:05;;;;;;;10.77;2.13;;;14.70;99.90;;;;;;5024480;28;20122;-68
2022/05/28 13:02:43;;;;;;;9.98;2.00;;;14.70;99.90;;;;;;5031143;28;20076;-68
2022/05/28 13:05:32;;;;;;;8.88;1.63;;;14.60;99.90;;;;;;5048035;28;20124;-67
2022/05/28 13:08:17;;;;;;;6.15;1.35;;;14.50;99.90;;;;;;5031438;28;20045;-68
2022/05/28 13:10:52;;;;;;;8.57;1.77;;;14.50;99.90;;;;;;5031269;28;20053;-68
2022/05/28 13:13:27;;;;;;;7.75;1.83;;;14.50;99.90;;;;;;5041712;28;20084;-68
2022/05/28 13:16:26;;;;;;;10.05;1.67;;;14.60;99.90;;;;;;5050160;28;20512;-68
2022/05/28 13:19:40;;;;;;;11.65;2.25;;;14.70;99.90;;;;;;5049782;28;20037;-68